createdAt,value
2017-03-15T00:00:11.505Z,1019.48
2017-03-15T00:00:51.991Z,1019.49
2017-03-15T00:01:32.487Z,1019.5
2017-03-15T00:02:12.966Z,1019.45
2017-03-15T00:02:53.452Z,1019.52
2017-03-15T00:05:06.298Z,1019.49
2017-03-15T00:05:46.735Z,1019.53
2017-03-15T00:06:27.228Z,1019.53
2017-03-15T00:07:07.745Z,1019.51
2017-03-15T00:07:48.135Z,1019.55
2017-03-15T00:08:28.599Z,1019.49
2017-03-15T00:09:09.034Z,1019.54
2017-03-15T00:09:49.525Z,1019.51
2017-03-15T00:10:29.942Z,1019.54
2017-03-15T00:11:10.426Z,1019.52
2017-03-15T00:11:50.893Z,1019.57
2017-03-15T00:12:31.358Z,1019.53
2017-03-15T00:13:11.774Z,1019.57
2017-03-15T00:13:52.199Z,1019.53
2017-03-15T00:14:32.659Z,1019.55
2017-03-15T00:15:13.146Z,1019.57
2017-03-15T00:15:53.555Z,1019.6
2017-03-15T00:17:51.201Z,1019.66
2017-03-15T00:18:31.629Z,1019.6
2017-03-15T00:19:12.091Z,1019.64
2017-03-15T00:19:52.569Z,1019.58
2017-03-15T00:20:33.044Z,1019.61
2017-03-15T00:21:13.440Z,1019.58
2017-03-15T00:21:53.864Z,1019.59
2017-03-15T00:22:34.303Z,1019.6
2017-03-15T00:24:26.958Z,1019.56
2017-03-15T00:25:07.417Z,1019.56
2017-03-15T00:25:47.875Z,1019.6
2017-03-15T00:26:28.365Z,1019.57
2017-03-15T00:27:08.794Z,1019.61
2017-03-15T00:29:21.866Z,1019.6
2017-03-15T00:30:02.271Z,1019.6
2017-03-15T00:30:42.738Z,1019.64
2017-03-15T00:31:23.158Z,1019.64
2017-03-15T00:32:03.624Z,1019.64
2017-03-15T00:32:44.147Z,1019.65
2017-03-15T00:33:24.573Z,1019.62
2017-03-15T00:34:05.021Z,1019.58
2017-03-15T00:34:45.481Z,1019.61
2017-03-15T00:35:25.917Z,1019.57
2017-03-15T00:36:06.391Z,1019.57
2017-03-15T00:36:46.823Z,1019.59
2017-03-15T00:37:27.289Z,1019.61
2017-03-15T00:38:07.740Z,1019.64
2017-03-15T00:38:48.191Z,1019.66
2017-03-15T00:39:28.633Z,1019.66
2017-03-15T00:40:09.122Z,1019.65
2017-03-15T00:40:49.543Z,1019.65
2017-03-15T00:41:30.018Z,1019.62
2017-03-15T00:42:10.461Z,1019.58
2017-03-15T00:42:50.913Z,1019.57
2017-03-15T00:43:31.334Z,1019.59
2017-03-15T00:44:11.792Z,1019.59
2017-03-15T00:44:52.230Z,1019.52
2017-03-15T00:45:32.669Z,1019.55
2017-03-15T00:46:13.103Z,1019.56
2017-03-15T00:46:53.547Z,1019.6
2017-03-15T00:47:34.011Z,1019.56
2017-03-15T00:49:46.780Z,1019.58
2017-03-15T00:50:27.226Z,1019.6
2017-03-15T00:51:07.714Z,1019.58
2017-03-15T00:51:48.210Z,1019.6
2017-03-15T00:52:28.688Z,1019.58
2017-03-15T00:53:09.170Z,1019.52
2017-03-15T00:53:49.628Z,1019.48
2017-03-15T00:55:47.252Z,1019.49
2017-03-15T00:56:27.727Z,1019.51
2017-03-15T00:57:08.174Z,1019.47
2017-03-15T00:57:48.657Z,1019.49
2017-03-15T00:58:29.250Z,1019.5
2017-03-15T00:59:09.688Z,1019.47
2017-03-15T01:01:37.649Z,1019.42
2017-03-15T01:02:18.073Z,1019.44
2017-03-15T01:02:58.537Z,1019.42
2017-03-15T01:03:38.990Z,1019.41
2017-03-15T01:04:19.439Z,1019.41
2017-03-15T01:04:59.891Z,1019.43
2017-03-15T01:05:40.365Z,1019.44
2017-03-15T01:06:20.836Z,1019.43
2017-03-15T01:08:38.800Z,1019.43
2017-03-15T01:09:19.323Z,1019.44
2017-03-15T01:09:59.673Z,1019.45
2017-03-15T01:10:40.115Z,1019.45
2017-03-15T01:11:20.561Z,1019.45
2017-03-15T01:12:00.985Z,1019.47
2017-03-15T01:12:41.408Z,1019.47
2017-03-15T01:13:21.785Z,1019.47
2017-03-15T01:14:02.207Z,1019.47
2017-03-15T01:15:54.694Z,0
2017-03-15T01:16:35.105Z,0
2017-03-15T01:17:15.480Z,0
2017-03-15T01:17:55.870Z,0
2017-03-15T01:18:36.278Z,0
2017-03-15T01:19:16.681Z,0
2017-03-15T01:19:57.087Z,0
2017-03-15T01:20:37.518Z,0
2017-03-15T01:21:17.913Z,0
2017-03-15T01:21:58.308Z,0
2017-03-15T01:23:55.932Z,0
2017-03-15T01:24:36.300Z,0
2017-03-15T01:25:16.719Z,0
2017-03-15T01:25:57.144Z,0
2017-03-15T01:26:37.548Z,0
2017-03-15T01:27:17.957Z,0
2017-03-15T01:27:58.374Z,0
2017-03-15T01:28:38.768Z,0
2017-03-15T01:30:51.742Z,0
2017-03-15T01:31:32.142Z,0
2017-03-15T01:32:12.578Z,0
2017-03-15T01:34:10.139Z,0
2017-03-15T01:34:50.487Z,0
2017-03-15T01:35:30.927Z,0
2017-03-15T01:36:11.330Z,0
2017-03-15T01:36:51.724Z,0
2017-03-15T01:37:32.140Z,0
2017-03-15T01:38:12.522Z,0
2017-03-15T01:38:52.932Z,0
2017-03-15T01:39:33.345Z,0
2017-03-15T01:40:13.798Z,0
2017-03-15T01:40:54.209Z,0
2017-03-15T01:43:22.024Z,0
2017-03-15T01:44:02.410Z,0
2017-03-15T01:44:42.816Z,0
2017-03-15T01:45:23.228Z,0
2017-03-15T01:46:03.639Z,0
2017-03-15T01:46:44.057Z,0
2017-03-15T01:47:24.468Z,0
2017-03-15T01:48:04.895Z,0
2017-03-15T01:48:45.318Z,0
2017-03-15T01:51:03.026Z,0
2017-03-15T01:53:30.908Z,0
2017-03-15T01:54:11.317Z,0
2017-03-15T01:56:03.831Z,0
2017-03-15T01:56:44.266Z,0
2017-03-15T01:57:24.745Z,0
2017-03-15T01:58:05.179Z,0
2017-03-15T01:58:45.598Z,0
2017-03-15T01:59:26.039Z,0
2017-03-15T02:00:06.485Z,0
2017-03-15T02:00:46.915Z,0
2017-03-15T02:01:27.351Z,0
2017-03-15T02:02:07.802Z,0
2017-03-15T02:02:48.257Z,0
2017-03-15T02:03:28.687Z,0
2017-03-15T02:04:09.124Z,0
2017-03-15T02:04:49.583Z,0
2017-03-15T02:05:30.014Z,0
2017-03-15T02:06:10.462Z,0
2017-03-15T02:06:50.913Z,0
2017-03-15T02:07:31.376Z,0
2017-03-15T02:08:11.792Z,0
2017-03-15T02:08:52.227Z,0
2017-03-15T02:09:32.659Z,0
2017-03-15T02:10:13.113Z,0
2017-03-15T02:10:53.548Z,0
2017-03-15T02:11:34.003Z,0
2017-03-15T02:12:14.447Z,0
2017-03-15T02:12:54.881Z,0
2017-03-15T02:13:35.316Z,0
2017-03-15T02:14:15.784Z,0
2017-03-15T02:14:56.186Z,0
2017-03-15T02:16:54.097Z,0
2017-03-15T02:17:34.503Z,0
2017-03-15T02:18:14.930Z,0
2017-03-15T02:18:55.371Z,0
2017-03-15T02:21:08.170Z,0
2017-03-15T02:21:48.548Z,0
2017-03-15T02:23:46.131Z,0
2017-03-15T02:24:26.566Z,0
2017-03-15T02:25:06.992Z,0
2017-03-15T02:25:47.436Z,0
2017-03-15T02:26:27.885Z,0
2017-03-15T02:27:08.335Z,0
2017-03-15T02:27:48.764Z,0
2017-03-15T02:28:29.212Z,0
2017-03-15T02:29:09.646Z,0
2017-03-15T02:29:50.092Z,0
2017-03-15T02:30:30.528Z,0
2017-03-15T02:31:11.004Z,0
2017-03-15T02:31:51.416Z,0
2017-03-15T02:32:31.859Z,0
2017-03-15T02:33:12.295Z,0
2017-03-15T02:33:52.742Z,0
2017-03-15T02:34:33.183Z,0
2017-03-15T02:35:13.672Z,0
2017-03-15T02:35:54.060Z,0
2017-03-15T02:36:34.496Z,0
2017-03-15T02:37:14.934Z,0
2017-03-15T02:37:55.368Z,0
2017-03-15T02:38:35.840Z,0
2017-03-15T02:39:16.273Z,0
2017-03-15T02:39:56.715Z,0
2017-03-15T02:40:37.227Z,0
2017-03-15T02:41:17.597Z,0
2017-03-15T02:41:58.037Z,0
2017-03-15T02:42:38.484Z,0
2017-03-15T02:43:18.921Z,0
2017-03-15T02:43:59.356Z,0
2017-03-15T02:44:39.812Z,0
2017-03-15T02:45:20.249Z,0
2017-03-15T02:46:00.729Z,0
2017-03-15T02:46:41.173Z,0
2017-03-15T02:47:21.555Z,0
2017-03-15T02:48:01.979Z,0
2017-03-15T02:48:42.362Z,0
2017-03-15T02:49:22.768Z,0
2017-03-15T02:50:03.189Z,0
2017-03-15T02:50:43.590Z,0
2017-03-15T02:52:56.373Z,0
2017-03-15T02:53:36.762Z,0
2017-03-15T02:54:17.146Z,0
2017-03-15T02:56:29.789Z,0
2017-03-15T02:57:10.189Z,0
2017-03-15T02:57:50.623Z,0
2017-03-15T02:58:31.028Z,0
2017-03-15T02:59:11.429Z,0
2017-03-15T02:59:51.827Z,0
2017-03-15T03:00:32.240Z,0
2017-03-15T03:01:12.607Z,0
2017-03-15T03:01:53.010Z,0
2017-03-15T03:02:33.452Z,0
2017-03-15T03:03:13.849Z,0
2017-03-15T03:03:54.283Z,0
2017-03-15T03:06:22.125Z,0
2017-03-15T03:07:02.558Z,0
2017-03-15T03:07:43.014Z,0
2017-03-15T03:08:23.440Z,0
2017-03-15T03:09:03.862Z,0
2017-03-15T03:11:31.707Z,0
2017-03-15T03:12:12.104Z,0
2017-03-15T03:14:29.840Z,0
2017-03-15T03:15:10.217Z,0
2017-03-15T03:15:50.651Z,0
2017-03-15T03:16:31.045Z,0
2017-03-15T03:17:11.443Z,0
2017-03-15T03:17:51.832Z,0
2017-03-15T03:18:32.261Z,0
2017-03-15T03:19:12.700Z,0
2017-03-15T03:19:53.070Z,0
2017-03-15T03:22:21.025Z,0
2017-03-15T03:23:01.495Z,0
2017-03-15T03:23:41.865Z,0
2017-03-15T03:24:22.294Z,0
2017-03-15T03:25:02.737Z,0
2017-03-15T03:25:43.166Z,0
2017-03-15T03:26:23.597Z,0
2017-03-15T03:27:04.040Z,0
2017-03-15T03:27:44.485Z,0
2017-03-15T03:28:24.982Z,0
2017-03-15T03:29:05.371Z,0
2017-03-15T03:29:45.829Z,0
2017-03-15T03:30:26.258Z,0
2017-03-15T03:31:06.701Z,0
2017-03-15T03:31:47.131Z,0
2017-03-15T03:32:27.579Z,0
2017-03-15T03:33:08.013Z,0
2017-03-15T03:33:48.456Z,0
2017-03-15T03:34:28.910Z,0
2017-03-15T03:35:09.352Z,0
2017-03-15T03:35:49.779Z,0
2017-03-15T03:36:30.221Z,0
2017-03-15T03:37:10.678Z,0
2017-03-15T03:37:51.124Z,0
2017-03-15T03:38:31.559Z,0
2017-03-15T03:39:11.999Z,0
2017-03-15T03:39:52.442Z,0
2017-03-15T03:40:32.894Z,0
2017-03-15T03:41:13.342Z,0
2017-03-15T03:41:53.777Z,0
2017-03-15T03:42:34.225Z,0
2017-03-15T03:43:14.658Z,0
2017-03-15T03:43:55.125Z,0
2017-03-15T03:44:35.573Z,0
2017-03-15T03:45:15.960Z,0
2017-03-15T03:45:56.417Z,0
2017-03-15T03:46:36.866Z,0
2017-03-15T03:47:17.306Z,0
2017-03-15T03:47:57.746Z,0
2017-03-15T03:48:38.199Z,0
2017-03-15T03:49:18.628Z,0
2017-03-15T03:49:59.074Z,0
2017-03-15T03:50:39.522Z,0
2017-03-15T03:51:19.957Z,0
2017-03-15T03:52:00.394Z,0
2017-03-15T03:52:40.833Z,0
2017-03-15T03:53:21.273Z,0
2017-03-15T03:54:01.728Z,0
2017-03-15T03:54:42.174Z,0
2017-03-15T03:55:22.625Z,0
2017-03-15T03:56:03.079Z,0
2017-03-15T03:56:43.511Z,0
2017-03-15T03:57:23.952Z,0
2017-03-15T03:58:04.396Z,0
2017-03-15T03:58:44.837Z,0
2017-03-15T03:59:25.293Z,0
2017-03-15T04:00:05.736Z,0
2017-03-15T04:00:46.208Z,0
2017-03-15T04:01:26.652Z,0
2017-03-15T04:02:07.100Z,0
2017-03-15T04:02:47.548Z,0
2017-03-15T04:03:27.994Z,0
2017-03-15T04:04:08.435Z,0
2017-03-15T04:04:48.866Z,0
2017-03-15T04:05:29.334Z,0
2017-03-15T04:06:09.755Z,0
2017-03-15T04:06:50.211Z,0
2017-03-15T04:07:30.686Z,0
2017-03-15T04:08:11.117Z,0
2017-03-15T04:08:51.561Z,0
2017-03-15T04:09:31.985Z,0
2017-03-15T04:10:12.427Z,0
2017-03-15T04:10:52.864Z,0
2017-03-15T04:11:33.307Z,0
2017-03-15T04:12:13.747Z,0
2017-03-15T04:12:54.187Z,0
2017-03-15T04:13:34.621Z,0
2017-03-15T04:14:15.073Z,0
2017-03-15T04:14:55.521Z,0
2017-03-15T04:15:35.969Z,0
2017-03-15T04:16:16.414Z,0
2017-03-15T04:16:56.861Z,0
2017-03-15T04:17:37.311Z,0
2017-03-15T04:18:17.752Z,0
2017-03-15T04:18:58.189Z,0
2017-03-15T04:19:38.630Z,0
2017-03-15T04:20:19.077Z,0
2017-03-15T04:20:59.491Z,0
2017-03-15T04:22:52.009Z,0
2017-03-15T04:23:32.400Z,0
2017-03-15T04:24:12.802Z,0
2017-03-15T04:24:53.207Z,0
2017-03-15T04:25:33.573Z,0
2017-03-15T04:26:13.970Z,0
2017-03-15T04:26:54.368Z,0
2017-03-15T04:28:46.886Z,0
2017-03-15T04:29:27.228Z,0
2017-03-15T04:31:39.905Z,0
2017-03-15T04:32:20.249Z,0
2017-03-15T04:33:00.656Z,0
2017-03-15T04:33:41.048Z,0
2017-03-15T04:34:21.458Z,0
2017-03-15T04:35:01.889Z,0
2017-03-15T04:35:42.298Z,0
2017-03-15T04:36:22.748Z,0
2017-03-15T04:37:03.124Z,0
2017-03-15T04:39:30.949Z,0
2017-03-15T04:40:11.374Z,0
2017-03-15T04:40:51.786Z,0
2017-03-15T04:41:32.161Z,0
2017-03-15T04:42:12.566Z,0
2017-03-15T04:44:05.166Z,0
2017-03-15T04:44:45.540Z,0
2017-03-15T04:45:25.958Z,0
2017-03-15T04:46:06.364Z,0
2017-03-15T04:46:46.781Z,0
2017-03-15T04:47:27.153Z,0
2017-03-15T04:48:07.536Z,0
2017-03-15T04:48:47.922Z,0
2017-03-15T04:49:28.350Z,0
2017-03-15T04:51:56.192Z,0
2017-03-15T04:52:36.606Z,0
2017-03-15T04:53:17.018Z,0
2017-03-15T04:55:29.688Z,0
2017-03-15T04:56:10.109Z,0
2017-03-15T04:56:50.562Z,0
2017-03-15T04:57:31.005Z,0
2017-03-15T04:58:11.464Z,0
2017-03-15T04:58:51.874Z,0
2017-03-15T04:59:32.313Z,0
2017-03-15T05:00:12.757Z,0
2017-03-15T05:00:53.181Z,0
2017-03-15T05:01:33.607Z,0
2017-03-15T05:02:14.064Z,0
2017-03-15T05:02:54.490Z,0
2017-03-15T05:03:34.930Z,0
2017-03-15T05:04:15.380Z,0
2017-03-15T05:04:55.822Z,0
2017-03-15T05:05:36.253Z,0
2017-03-15T05:06:16.696Z,0
2017-03-15T05:06:57.135Z,0
2017-03-15T05:07:37.593Z,0
2017-03-15T05:08:18.013Z,0
2017-03-15T05:08:58.436Z,0
2017-03-15T05:09:38.888Z,0
2017-03-15T05:10:19.327Z,0
2017-03-15T05:10:59.766Z,0
2017-03-15T05:11:40.208Z,0
2017-03-15T05:12:20.636Z,0
2017-03-15T05:13:01.073Z,0
2017-03-15T05:13:41.516Z,0
2017-03-15T05:14:21.959Z,0
2017-03-15T05:15:02.407Z,0
2017-03-15T05:15:42.856Z,0
2017-03-15T05:16:23.274Z,0
2017-03-15T05:17:03.725Z,0
2017-03-15T05:17:44.171Z,0
2017-03-15T05:18:24.618Z,0
2017-03-15T05:19:05.058Z,0
2017-03-15T05:19:45.495Z,0
2017-03-15T05:20:25.917Z,0
2017-03-15T05:21:06.343Z,0
2017-03-15T05:21:46.785Z,0
2017-03-15T05:22:27.230Z,0
2017-03-15T05:23:07.656Z,0
2017-03-15T05:23:48.093Z,0
2017-03-15T05:24:28.533Z,0
2017-03-15T05:25:08.995Z,0
2017-03-15T05:25:49.435Z,0
2017-03-15T05:26:29.890Z,0
2017-03-15T05:27:10.331Z,0
2017-03-15T05:27:50.746Z,0
2017-03-15T05:29:43.219Z,0
2017-03-15T05:30:23.654Z,0
2017-03-15T05:31:04.186Z,0
2017-03-15T05:31:44.625Z,0
2017-03-15T05:32:25.058Z,0
2017-03-15T05:33:05.506Z,0
2017-03-15T05:33:45.947Z,0
2017-03-15T05:34:26.397Z,0
2017-03-15T05:35:06.845Z,0
2017-03-15T05:35:47.265Z,0
2017-03-15T05:36:27.698Z,0
2017-03-15T05:37:08.134Z,0
2017-03-15T05:37:48.588Z,0
2017-03-15T05:38:29.029Z,0
2017-03-15T05:39:09.453Z,0
2017-03-15T05:39:49.897Z,0
2017-03-15T05:40:30.318Z,0
2017-03-15T05:41:10.751Z,0
2017-03-15T05:41:51.190Z,0
2017-03-15T05:42:31.621Z,0
2017-03-15T05:43:12.058Z,0
2017-03-15T05:43:52.505Z,0
2017-03-15T05:44:32.939Z,0
2017-03-15T05:45:13.408Z,0
2017-03-15T05:45:53.812Z,0
2017-03-15T05:46:34.247Z,0
2017-03-15T05:47:14.701Z,0
2017-03-15T05:47:55.160Z,0
2017-03-15T05:48:35.568Z,0
2017-03-15T05:49:15.994Z,0
2017-03-15T05:49:56.451Z,0
2017-03-15T05:50:36.892Z,0
2017-03-15T05:51:17.367Z,0
2017-03-15T05:51:57.808Z,0
2017-03-15T05:52:38.261Z,0
2017-03-15T05:53:18.696Z,0
2017-03-15T05:53:59.139Z,0
2017-03-15T05:54:39.585Z,0
2017-03-15T05:55:20.013Z,0
2017-03-15T05:56:00.448Z,0
2017-03-15T05:56:40.884Z,0
2017-03-15T05:57:21.340Z,0
2017-03-15T05:58:01.779Z,0
2017-03-15T05:58:42.211Z,0
2017-03-15T05:59:22.657Z,0
2017-03-15T06:00:03.101Z,0
2017-03-15T06:00:43.554Z,0
2017-03-15T06:01:24.019Z,0
2017-03-15T06:02:04.467Z,0
2017-03-15T06:02:44.907Z,0
2017-03-15T06:03:25.334Z,0
2017-03-15T06:04:05.779Z,0
2017-03-15T06:04:46.223Z,0
2017-03-15T06:05:26.668Z,0
2017-03-15T06:06:07.114Z,0
2017-03-15T06:06:47.558Z,0
2017-03-15T06:07:27.984Z,0
2017-03-15T06:08:08.390Z,0
2017-03-15T06:10:26.155Z,0
2017-03-15T06:11:06.543Z,0
2017-03-15T06:11:46.928Z,0
2017-03-15T06:12:27.343Z,0
2017-03-15T06:13:07.722Z,0
2017-03-15T06:13:48.119Z,0
2017-03-15T06:14:28.526Z,0
2017-03-15T06:15:08.990Z,0
2017-03-15T06:15:49.408Z,0
2017-03-15T06:16:30.044Z,0
2017-03-15T06:18:27.612Z,0
2017-03-15T06:19:07.982Z,0
2017-03-15T06:19:48.410Z,0
2017-03-15T06:20:28.828Z,0
2017-03-15T06:21:09.262Z,0
2017-03-15T06:21:49.676Z,0
2017-03-15T06:22:30.072Z,0
2017-03-15T06:23:10.467Z,0
2017-03-15T06:25:08.242Z,0
2017-03-15T06:25:48.674Z,0
2017-03-15T06:26:29.056Z,0
2017-03-15T06:27:09.485Z,0
2017-03-15T06:27:49.895Z,0
2017-03-15T06:28:30.282Z,0
2017-03-15T06:30:22.812Z,0
2017-03-15T06:31:03.141Z,0
2017-03-15T06:33:20.891Z,0
2017-03-15T06:34:01.325Z,0
2017-03-15T06:34:41.759Z,0
2017-03-15T06:35:22.178Z,0
2017-03-15T06:36:02.616Z,0
2017-03-15T06:36:43.043Z,0
2017-03-15T06:37:23.486Z,0
2017-03-15T06:38:03.933Z,0
2017-03-15T06:38:44.377Z,0
2017-03-15T06:39:24.875Z,0
2017-03-15T06:40:05.303Z,0
2017-03-15T06:40:45.748Z,0
2017-03-15T06:41:26.196Z,0
2017-03-15T06:42:06.612Z,0
2017-03-15T06:42:47.048Z,0
2017-03-15T06:43:27.486Z,0
2017-03-15T06:44:07.940Z,0
2017-03-15T06:44:48.392Z,0
2017-03-15T06:45:28.802Z,0
2017-03-15T06:50:48.651Z,1020.59
2017-03-15T06:51:29.169Z,1020.58
2017-03-15T06:52:09.610Z,1020.57
2017-03-15T06:52:50.090Z,1020.58
2017-03-15T06:53:30.578Z,1020.64
2017-03-15T06:54:11.069Z,1020.62
2017-03-15T06:54:51.558Z,1020.61
2017-03-15T06:55:32.040Z,1020.63
2017-03-15T06:56:12.522Z,1020.63
2017-03-15T06:56:53.010Z,1020.67
2017-03-15T06:57:33.494Z,1020.68
2017-03-15T06:58:13.982Z,1020.64
2017-03-15T06:58:54.483Z,1020.68
2017-03-15T06:59:34.967Z,1020.7
2017-03-15T07:00:15.453Z,1020.71
2017-03-15T07:00:55.944Z,1020.68
2017-03-15T07:01:36.444Z,1020.69
2017-03-15T07:02:16.940Z,1020.71
2017-03-15T07:02:57.428Z,1020.7
2017-03-15T07:03:37.928Z,1020.71
2017-03-15T07:04:18.402Z,1020.72
2017-03-15T07:04:58.887Z,1020.71
2017-03-15T07:05:39.363Z,1020.74
2017-03-15T07:06:19.858Z,1020.72
2017-03-15T07:07:00.346Z,1020.7
2017-03-15T07:07:40.882Z,1020.74
2017-03-15T07:08:21.385Z,1020.76
2017-03-15T07:09:01.832Z,1020.73
2017-03-15T07:09:42.328Z,1020.73
2017-03-15T07:10:22.870Z,1020.72
2017-03-15T07:11:03.307Z,1020.73
2017-03-15T07:11:43.804Z,1020.81
2017-03-15T07:12:24.318Z,1020.78
2017-03-15T07:13:04.778Z,1020.8
2017-03-15T07:13:45.260Z,1020.79
2017-03-15T07:14:25.756Z,1020.81
2017-03-15T07:15:06.250Z,1020.87
2017-03-15T07:15:46.737Z,1020.92
2017-03-15T07:16:27.232Z,1020.93
2017-03-15T07:17:07.713Z,1020.94
2017-03-15T07:17:48.195Z,1020.97
2017-03-15T07:18:28.697Z,1020.98
2017-03-15T07:19:09.308Z,1021.01
2017-03-15T07:19:49.795Z,1021.03
2017-03-15T07:20:30.302Z,1020.96
2017-03-15T07:21:10.769Z,1020.97
2017-03-15T07:21:51.259Z,1021.04
2017-03-15T07:22:31.741Z,1021.05
2017-03-15T07:23:12.239Z,1021.09
2017-03-15T07:23:52.854Z,1021.13
2017-03-15T07:24:33.400Z,1021.13
2017-03-15T07:25:13.869Z,1021.16
2017-03-15T07:25:54.331Z,1021.09
2017-03-15T07:26:34.776Z,1021.1
2017-03-15T07:27:15.246Z,1021.16
2017-03-15T07:27:55.687Z,1021.18
2017-03-15T07:28:36.172Z,1021.16
2017-03-15T07:29:16.622Z,1021.11
2017-03-15T07:29:57.065Z,1021.09
2017-03-15T07:31:49.615Z,1021.12
2017-03-15T07:32:30.096Z,1021.16
2017-03-15T07:33:10.609Z,1021.15
2017-03-15T07:33:51.072Z,1021.09
2017-03-15T07:34:31.563Z,1021.07
2017-03-15T07:35:12.053Z,1021.08
2017-03-15T07:35:52.551Z,1021.09
2017-03-15T07:36:33.049Z,1021.09
2017-03-15T07:37:13.551Z,1021.06
2017-03-15T07:37:54.030Z,1021.1
2017-03-15T07:38:34.552Z,1021.08
2017-03-15T07:39:15.047Z,1021.12
2017-03-15T07:39:55.600Z,1021.11
2017-03-15T07:40:36.092Z,1021.14
2017-03-15T07:41:16.598Z,1021.12
2017-03-15T07:41:57.085Z,1021.2
2017-03-15T07:42:37.592Z,1021.14
2017-03-15T07:43:18.095Z,1021.1
2017-03-15T07:43:58.601Z,1021.02
2017-03-15T07:44:39.077Z,1021.08
2017-03-15T07:45:19.581Z,1021.01
2017-03-15T07:46:00.161Z,1021.05
2017-03-15T07:46:40.770Z,1021.02
2017-03-15T07:47:21.298Z,1020.99
2017-03-15T07:48:01.814Z,1020.99
2017-03-15T07:48:42.322Z,1021.05
2017-03-15T07:49:22.835Z,1021.04
2017-03-15T07:50:03.325Z,1021.01
2017-03-15T07:50:43.821Z,1021.04
2017-03-15T07:51:24.312Z,1020.99
2017-03-15T07:52:04.819Z,1021.03
2017-03-15T07:52:45.309Z,1021.05
2017-03-15T07:53:25.801Z,1021.07
2017-03-15T07:54:06.307Z,1021.06
2017-03-15T07:54:46.821Z,1021.03
2017-03-15T07:55:27.293Z,1021.02
2017-03-15T07:56:07.806Z,1021
2017-03-15T07:56:48.295Z,1021.02
2017-03-15T07:57:28.809Z,1021.05
2017-03-15T07:58:09.319Z,1021.08
2017-03-15T07:58:49.814Z,1021.18
2017-03-15T07:59:30.289Z,1021.06
2017-03-15T08:00:10.781Z,1021.1
2017-03-15T08:00:51.271Z,1021.13
2017-03-15T08:01:31.777Z,1021.07
2017-03-15T08:02:12.278Z,1021.01
2017-03-15T08:02:52.817Z,1021.1
2017-03-15T08:03:33.322Z,1021.09
2017-03-15T08:04:13.803Z,1021.06
2017-03-15T08:04:54.302Z,1021.1
2017-03-15T08:05:34.798Z,1021.07
2017-03-15T08:06:15.291Z,1021.1
2017-03-15T08:06:55.805Z,1021.14
2017-03-15T08:07:36.313Z,1021.13
2017-03-15T08:08:16.800Z,1021.24
2017-03-15T08:08:57.306Z,1021.18
2017-03-15T08:09:37.818Z,1021.24
2017-03-15T08:10:18.342Z,1021.2
2017-03-15T08:10:58.875Z,1021.15
2017-03-15T08:11:39.391Z,1021.22
2017-03-15T08:12:19.902Z,1021.2
2017-03-15T08:13:00.409Z,1021.17
2017-03-15T08:13:40.888Z,1021.2
2017-03-15T08:16:08.854Z,1021.15
2017-03-15T08:16:49.406Z,1021.18
2017-03-15T08:17:29.928Z,1021.24
2017-03-15T08:18:10.457Z,1021.26
2017-03-15T08:18:50.981Z,1021.29
2017-03-15T08:19:31.475Z,1021.33
2017-03-15T08:21:24.044Z,1021.42
2017-03-15T08:22:04.517Z,1021.39
2017-03-15T08:22:45.018Z,1021.36
2017-03-15T08:23:25.543Z,1021.38
2017-03-15T08:24:06.047Z,1021.4
2017-03-15T08:24:46.533Z,1021.43
2017-03-15T08:25:27.037Z,1021.37
2017-03-15T08:26:07.520Z,1021.37
2017-03-15T08:26:48.105Z,1021.38
2017-03-15T08:27:28.603Z,1021.4
2017-03-15T08:28:09.114Z,1021.41
2017-03-15T08:28:49.666Z,1021.39
2017-03-15T08:29:30.099Z,1021.46
2017-03-15T08:30:10.673Z,1021.43
2017-03-15T08:32:23.401Z,1021.45
2017-03-15T08:33:03.935Z,1021.44
2017-03-15T08:33:44.531Z,1021.44
2017-03-15T08:34:25.059Z,1021.39
2017-03-15T08:35:05.581Z,1021.37
2017-03-15T08:35:46.075Z,1021.35
2017-03-15T08:36:26.585Z,1021.35
2017-03-15T08:37:07.093Z,1021.38
2017-03-15T08:37:47.590Z,1021.38
2017-03-15T08:38:28.147Z,1021.44
2017-03-15T08:39:08.662Z,1021.54
2017-03-15T08:39:49.184Z,1021.56
2017-03-15T08:40:29.670Z,1021.53
2017-03-15T08:41:10.231Z,1021.44
2017-03-15T08:41:50.754Z,1021.44
2017-03-15T08:42:31.278Z,1021.41
2017-03-15T08:43:11.778Z,1021.42
2017-03-15T08:43:52.254Z,1021.47
2017-03-15T08:44:32.757Z,1021.48
2017-03-15T08:45:13.273Z,1021.45
2017-03-15T08:45:53.800Z,1021.49
2017-03-15T08:46:34.279Z,1021.47
2017-03-15T08:47:14.788Z,1021.4
2017-03-15T08:47:55.325Z,1021.48
2017-03-15T08:48:35.831Z,1021.48
2017-03-15T08:49:16.338Z,1021.48
2017-03-15T08:49:56.853Z,1021.43
2017-03-15T08:50:37.345Z,1021.49
2017-03-15T08:51:17.807Z,1021.4
2017-03-15T08:51:58.283Z,1021.42
2017-03-15T08:52:38.765Z,1021.39
2017-03-15T08:53:19.262Z,1021.36
2017-03-15T08:53:59.774Z,1021.34
2017-03-15T08:54:40.266Z,1021.29
2017-03-15T08:55:20.779Z,1021.26
2017-03-15T08:56:01.273Z,1021.24
2017-03-15T08:56:41.761Z,1021.22
2017-03-15T08:57:22.261Z,1021.24
2017-03-15T08:58:02.747Z,1021.25
2017-03-15T09:00:00.871Z,1021.23
2017-03-15T09:00:41.325Z,1021.31
2017-03-15T09:01:21.797Z,1021.48
2017-03-15T09:03:49.734Z,1021.64
2017-03-15T09:05:42.321Z,1021.58
2017-03-15T09:06:22.848Z,1021.57
2017-03-15T09:07:03.333Z,1021.56
2017-03-15T09:07:43.819Z,1021.55
2017-03-15T09:08:24.694Z,1021.55
2017-03-15T09:09:05.589Z,1021.49
2017-03-15T09:09:46.097Z,1021.42
2017-03-15T09:10:26.600Z,1021.45
2017-03-15T09:11:07.089Z,1021.47
2017-03-15T09:11:47.524Z,1021.54
2017-03-15T09:12:28.244Z,1021.53
2017-03-15T09:13:08.747Z,1021.49
2017-03-15T09:13:49.282Z,1021.54
2017-03-15T09:14:29.846Z,1021.56
2017-03-15T09:15:10.450Z,1021.58
2017-03-15T09:15:51.444Z,1021.61
2017-03-15T09:16:32.358Z,1021.6
2017-03-15T09:17:13.105Z,1021.55
2017-03-15T09:17:53.632Z,1021.51
2017-03-15T09:18:34.131Z,1021.53
2017-03-15T09:19:14.616Z,1021.54
2017-03-15T09:19:55.051Z,1021.52
2017-03-15T09:20:35.499Z,1021.51
2017-03-15T09:21:15.947Z,1021.51
2017-03-15T09:21:56.496Z,1021.49
2017-03-15T09:24:14.851Z,1021.51
2017-03-15T09:24:55.252Z,1021.5
2017-03-15T09:25:36.359Z,1021.52
2017-03-15T09:26:17.147Z,1021.56
2017-03-15T09:26:57.988Z,1021.6
2017-03-15T09:27:38.685Z,1021.58
2017-03-15T09:29:51.852Z,1021.55
2017-03-15T09:30:32.880Z,1021.61
2017-03-15T09:31:13.371Z,1021.61
2017-03-15T09:31:53.881Z,1021.54
2017-03-15T09:32:34.381Z,1021.55
2017-03-15T09:33:14.865Z,1021.68
2017-03-15T09:33:55.364Z,1021.71
2017-03-15T09:34:35.871Z,1021.77
2017-03-15T09:35:16.347Z,1021.83
2017-03-15T09:35:56.832Z,1021.93
2017-03-15T09:36:37.317Z,1021.89
2017-03-15T09:37:17.842Z,1021.85
2017-03-15T09:39:15.486Z,1021.76
2017-03-15T09:39:55.961Z,1021.74
2017-03-15T09:40:36.483Z,1021.78
2017-03-15T09:41:16.948Z,1021.62
2017-03-15T09:41:57.438Z,1021.55
2017-03-15T09:42:37.932Z,1021.69
2017-03-15T09:44:30.510Z,1021.75
2017-03-15T09:45:11.000Z,1021.77
2017-03-15T09:45:51.482Z,1021.77
2017-03-15T09:46:31.964Z,1021.78
2017-03-15T09:47:12.444Z,1021.7
2017-03-15T09:47:52.944Z,1021.6
2017-03-15T09:48:33.448Z,1021.54
2017-03-15T09:49:13.952Z,1021.54
2017-03-15T09:49:54.491Z,1021.41
2017-03-15T09:50:34.951Z,1021.44
2017-03-15T09:51:15.431Z,1021.38
2017-03-15T09:51:55.934Z,1021.39
2017-03-15T09:52:36.444Z,1021.36
2017-03-15T09:53:16.936Z,1021.39
2017-03-15T09:53:57.427Z,1021.49
2017-03-15T09:54:37.913Z,1021.66
2017-03-15T09:55:18.472Z,1021.54
2017-03-15T09:55:58.973Z,1021.37
2017-03-15T09:56:39.477Z,1021.33
2017-03-15T09:57:19.967Z,1021.39
2017-03-15T09:58:00.442Z,1021.44
2017-03-15T09:58:40.930Z,1021.49
2017-03-15T10:00:53.628Z,1021.44
2017-03-15T10:01:34.128Z,1021.45
2017-03-15T10:02:14.597Z,1021.49
2017-03-15T10:02:55.095Z,1021.43
2017-03-15T10:03:35.607Z,1021.43
2017-03-15T10:04:16.145Z,1021.43
2017-03-15T10:04:56.668Z,1021.42
2017-03-15T10:05:37.145Z,1021.44
2017-03-15T10:06:17.643Z,1021.43
2017-03-15T10:06:58.148Z,1021.48
2017-03-15T10:07:38.634Z,1021.53
2017-03-15T10:08:19.138Z,1021.56
2017-03-15T10:08:59.644Z,1021.62
2017-03-15T10:09:40.162Z,1021.63
2017-03-15T10:10:20.656Z,1021.62
2017-03-15T10:11:01.194Z,1021.6
2017-03-15T10:11:41.689Z,1021.62
2017-03-15T10:12:22.174Z,1021.62
2017-03-15T10:13:02.688Z,1021.59
2017-03-15T10:13:43.216Z,1021.6
2017-03-15T10:14:23.714Z,1021.46
2017-03-15T10:15:04.236Z,1021.3
2017-03-15T10:15:44.733Z,1021.15
2017-03-15T10:17:57.530Z,1021.08
2017-03-15T10:18:38.080Z,1021.36
2017-03-15T10:19:18.606Z,1021.59
2017-03-15T10:19:59.158Z,1021.76
2017-03-15T10:20:39.677Z,1021.87
2017-03-15T10:21:20.189Z,1021.79
2017-03-15T10:22:01.574Z,1021.78